• Join FlightAware (Why Join?)
  • Login
  • US Flag 
08:44AM EDT


 

Airport Tracker/Info


-or-


 

Live Flight TrackerFlight Track Log ✈ OPT332 ✈ 08-Nov-2013 ✈ KVRB - KLFT

Flight Track Log - Related Links

Times and Time Zones

All times are in EST time to prevent confusion due to time zone crossing. See the OPT332 flight status page for this flight to view local times or setup timezone preferences in your user account.

Time Position Orientation Groundspeed Altitude Reporting Facility
EST Latitude Longitude Course Direction KTS MPH feet Rate Location/Type
09:05AM 27.7103 -80.3986 263° West 379 436 2,000  Level Miami Center
09:06AM 27.7603 -80.4003 358° North 233 268 5,200 2,520 Climbing Miami Center
09:07AM 27.7586 -80.4683 268° West 164 189 7,100 1,800 Climbing Miami Center
09:08AM 27.7999 -80.9591 257° West  Level Estimated
09:08AM 27.7439 -80.5497 258° West 225 259 8,900  Level Miami Center
09:09AM 27.8237 -81.0495 262° West  Level Estimated
09:09AM 27.7314 -80.6339 260° West 270 311 9,000  Level Miami Center
09:10AM 27.8475 -81.1398 270° West  Level Estimated
09:10AM 27.7161 -80.7342 260° West 292 336 12,200  Level Miami Center
09:11AM 27.8712 -81.2303 263° West  Level Estimated
09:11AM 27.7011 -80.8228 259° West 298 343 14,900  Level Miami Center
09:12AM 27.6861 -80.9183 260° West 298 343 17,200 1,980 Climbing Miami Center
09:13AM 27.6689 -81.0044 257° West 310 357 18,900 1,980 Climbing Miami Center
09:14AM 27.6533 -81.1072 260° West 322 371 21,200 2,400 Climbing Miami Center
09:15AM 27.6358 -81.2119 259° West 322 371 23,800 2,280 Climbing Miami Center
09:16AM 27.6203 -81.3075 260° West 317 365 25,800 1,920 Climbing Miami Center
09:17AM 27.6047 -81.4053 260° West 317 365 27,700 1,800 Climbing Miami Center
09:18AM 27.5892 -81.5006 260° West 311 358 29,400 1,800 Climbing Miami Center
09:19AM 27.5903 -81.5919 271° West 316 364 31,400 1,800 Climbing Miami Center
09:20AM 27.5997 -81.6883 276° West 310 357 33,100 1,740 Climbing Miami Center
09:21AM 27.6086 -81.7967 275° West 315 362 34,900 1,800 Climbing Miami Center
09:22AM 27.6178 -81.8931 276° West 315 362 36,700 1,500 Climbing Miami Center
09:23AM 27.6250 -81.9847 275° West 308 354 38,000 600 Climbing Miami Center
09:24AM 27.6342 -82.0742 277° West 314 361 38,000  Level Miami Center
09:25AM 27.6444 -82.1917 276° West 335 386 38,000  Level Miami Center
09:26AM 27.6531 -82.3022 275° West 348 400 38,000 480 Level Miami Center
09:27AM 27.6633 -82.4128 276° West 357 411 39,000 1,200 Climbing Miami Center
09:28AM 27.6722 -82.5069 276° West 352 405 40,500 1,500 Climbing Miami Center
09:29AM 27.6786 -82.6058 274° West 334 384 42,000 1,020 Climbing Miami Center
09:30AM 27.6869 -82.7139 275° West 321 369 42,600 480 Climbing Miami Center
09:31AM 27.6953 -82.8128 275° West 321 369 43,000 180 Climbing Miami Center
09:32AM 27.7078 -82.9167 278° West 326 375 43,000  Level Miami Center
09:33AM 27.7178 -83.0250 276° West 339 390 43,000  Level Miami Center
09:34AM 27.7256 -83.1356 275° West 351 404 43,000  Level Miami Center
09:35AM 27.7331 -83.2439 274° West 351 404 43,000  Level Miami Center
09:36AM 27.7389 -83.3519 274° West 351 404 43,000  Level Miami Center
09:37AM 27.7525 -83.4628 278° West 351 404 43,000  Level Miami Center
09:38AM 27.7600 -83.5711 274° West 351 404 43,000  Level Miami Center
09:40AM 27.7756 -83.7719 275° West 345 397 43,000  Level Jacksonville Center
09:41AM 27.7811 -83.8825 273° West 346 398 43,000  Level Jacksonville Center
09:42AM 27.7928 -83.9881 277° West 346 398 43,000  Level Jacksonville Center
09:43AM 27.8000 -84.0961 274° West 346 398 43,000  Level Jacksonville Center
09:44AM 27.8114 -84.2064 277° West 351 404 43,000  Level Jacksonville Center
09:45AM 27.8144 -84.3167 272° West 351 404 43,000  Level Jacksonville Center
09:46AM 27.8258 -84.4247 277° West 351 404 43,000  Level Jacksonville Center
09:47AM 27.8347 -84.5353 275° West 351 404 43,000  Level Jacksonville Center
09:48AM 27.8397 -84.6456 273° West 351 404 43,000  Level Jacksonville Center
09:49AM 27.8486 -84.7561 275° West 351 404 43,000  Level Jacksonville Center
09:50AM 27.8572 -84.8664 275° West 351 404 43,000  Level Jacksonville Center
09:51AM 27.8639 -84.9817 274° West 357 411 43,000  Level Jacksonville Center
09:52AM 27.8725 -85.0922 275° West 357 411 43,000  Level Jacksonville Center
09:53AM 27.8789 -85.2025 274° West 357 411 43,000  Level Jacksonville Center
09:54AM 27.8997 -85.3111 282° West 364 419 43,000  Level Jacksonville Center
09:55AM 27.9331 -85.4222 289° West 364 419 43,000  Level Jacksonville Center
09:56AM 27.9664 -85.5336 289° West 370 426 43,000  Level Jacksonville Center
09:57AM 27.9975 -85.6425 288° West 365 420 43,000  Level Jacksonville Center
09:58AM 28.0306 -85.7539 289° West 365 420 43,000  Level Jacksonville Center
09:59AM 28.0656 -85.8606 290° West 365 420 43,000  Level Jacksonville Center
10:00AM 28.0947 -85.9581 289° West 372 428 43,000  Level Jacksonville Center
10:01AM 28.1272 -86.0742 288° West 367 422 43,000  Level Jacksonville Center
10:02AM 28.1600 -86.1858 288° West 367 422 43,000  Level Jacksonville Center
10:03AM 28.1928 -86.2931 289° West 367 422 43,000  Level Jacksonville Center
10:04AM 28.2253 -86.4025 289° West 373 429 43,000  Level Jacksonville Center
10:05AM 28.2594 -86.5167 289° West 373 429 43,000  Level Jacksonville Center
10:06AM 28.2919 -86.6286 288° West 380 437 43,000  Level Jacksonville Center
10:07AM 28.3261 -86.7406 289° West 373 429 43,000  Level Jacksonville Center
10:08AM 28.3600 -86.8575 288° West 379 436 43,000  Level Jacksonville Center
10:09AM 28.3939 -86.9719 289° West 379 436 43,000  Level Jacksonville Center
10:10AM 28.4239 -87.0772 288° West 379 436 43,000  Level Jacksonville Center
10:11AM 28.4578 -87.1919 289° West 379 436 43,000  Level Jacksonville Center
10:13AM 28.4994 -87.3392 288° West 376 433 43,000  Level Houston Center
10:14AM 28.5319 -87.4522 288° West 375 432 43,000  Level Houston Center
10:15AM 28.5714 -87.5881 288° West 376 433 43,000  Level Houston Center
10:16AM 28.6031 -87.7017 288° West 376 433 43,000  Level Houston Center
10:17AM 28.6361 -87.8153 288° West 378 435 43,000  Level Houston Center
10:18AM 28.6681 -87.9281 288° West 377 434 43,000  Level Houston Center
10:19AM 28.6997 -88.0414 288° West 376 433 43,000  Level Houston Center
10:20AM 28.7350 -88.1669 288° West 376 433 43,000 -780 Level Houston Center
10:21AM 28.7664 -88.2800 288° West 376 433 41,400 -1,800 Descending Houston Center
10:22AM 28.7986 -88.3942 288° West 378 435 39,400 -1,680 Descending Houston Center
10:23AM 28.8306 -88.5064 288° West 376 433 38,000 -720 Descending Houston Center
10:24AM 28.8661 -88.6408 287° West 371 427 38,000  Level Houston Center
10:25AM 28.8956 -88.7519 287° West 367 422 38,000  Level Houston Center
10:26AM 28.9189 -88.8653 283° West 367 422 38,000 -480 Level Houston Center
10:27AM 28.9422 -88.9769 283° West 363 418 37,100 -1,380 Descending Houston Center
10:28AM 28.9669 -89.0919 284° West 370 426 35,200 -1,860 Descending Houston Center
10:29AM 28.9917 -89.2119 283° West 385 443 33,300 -2,040 Descending Houston Center
10:30AM 29.0217 -89.3572 283° West 391 450 31,000 -2,040 Descending Houston Center
10:31AM 29.0472 -89.4783 284° West 392 451 29,100 -1,800 Descending Houston Center
10:32AM 29.0719 -89.6000 283° West 394 453 27,300 -1,860 Descending Houston Center
10:33AM 29.0969 -89.7250 283° West 399 459 25,300 -1,920 Descending Houston Center
10:34AM 29.1222 -89.8461 283° West 397 457 23,400 -1,620 Descending Houston Center
10:35AM 29.1478 -89.9675 284° West 393 452 22,000 -720 Descending Houston Center
10:36AM 29.1761 -90.1058 283° West 378 435 22,000  Level Houston Center
10:37AM 29.2303 -90.2033 302° West 365 420 22,000  Level Houston Center
10:38AM 29.2844 -90.2994 303° West 361 415 22,000  Level Houston Center
10:40AM 29.3378 -90.3956 302° West 357 411 22,000  Level Houston Center
10:41AM 29.3908 -90.4903 303° West 354 407 22,000  Level Houston Center
10:42AM 29.4439 -90.5869 302° West 356 410 22,000  Level Houston Center
10:43AM 29.5069 -90.7011 302° West 352 405 22,000 -60 Level Houston Center
10:44AM 29.5594 -90.7967 302° West 353 406 21,900 -1,020 Descending Houston Center
10:45AM 29.6108 -90.8897 302° West 346 398 20,000 -1,920 Descending Houston Center
10:46AM 29.6614 -90.9811 302° West 338 389 18,000 -1,800 Descending Houston Center
10:47AM 29.7103 -91.0700 302° West 329 379 16,400 -2,280 Descending Houston Center
10:48AM 29.7156 -91.1567 274° West 267 307 13,400 -1,680 Descending Houston Center
10:49AM 29.7153 -91.2478 270° West 238 274 13,000 -240 Descending Houston Center
10:50AM 29.7150 -91.3239 270° West 237 273 13,000  Level Houston Center
10:51AM 29.7150 -91.4003 270° West 239 275 13,000  Level Houston Center
10:52AM 29.7150 -91.4786 270° West 245 282 13,000  Level Houston Center
10:53AM 29.6908 -91.4589 145° Southeast 270 311 13,000  Level Houston Center
10:54AM 29.7142 -91.5086 298° West 226 260 13,000 -120 Level Houston Center
10:55AM 29.7131 -91.5594 269° West 128 147 12,800 -240 Descending Houston Center
10:56AM 29.7172 -91.6214 274° West 206 237 12,600 -420 Descending Houston Center
10:57AM 29.7606 -91.6583 323° Northwest 206 237 12,000 -420 Descending Houston Center
10:58AM 29.7933 -91.7153 304° West 227 261 11,800 -540 Descending Houston Center
10:59AM 29.8403 -91.7689 315° West 212 244 11,000 -900 Descending Houston Center
11:00AM 29.8908 -91.8122 323° Northwest 224 258 10,000 -1,320 Descending Houston Center
11:01AM 29.9242 -91.8714 303° West 245 282 8,300 -1,140 Descending Houston Center
11:02AM 29.9342 -91.9436 279° West 231 266 7,700 -1,320 Descending Houston Center
11:03AM 29.9422 -92.0178 277° West 231 266 5,600 -2,040 Descending Houston Center
11:04AM 29.9572 -92.0936 283° West 240 276 3,600 -1,980 Descending Houston Center
11:06AM 30.0592 -92.0501 20° North  Level Estimated
11:13AM 30.2050 -91.9877 20° North  Level Estimated
11:14AM 30.2050 -91.9877 180° South  Level Estimated
11:15AM 30.2050 -91.9877 180° South  Level Estimated
11:16AM 30.2050 -91.9877 180° South  Level Estimated